sensor_id;sensor_type;location;lat;lon;timestamp;temperature;humidity
31695;DHT22;18289;51.330;4.946;2022-11-28T00:00:59;8.90;99.90
31695;DHT22;18289;51.330;4.946;2022-11-28T00:03:25;8.90;99.90
31695;DHT22;18289;51.330;4.946;2022-11-28T00:05:51;8.80;99.90
31695;DHT22;18289;51.330;4.946;2022-11-28T00:08:17;8.90;99.90
31695;DHT22;18289;51.330;4.946;2022-11-28T00:10:42;8.90;99.90
31695;DHT22;18289;51.330;4.946;2022-11-28T00:13:08;8.90;99.90
31695;DHT22;18289;51.330;4.946;2022-11-28T00:15:34;8.90;99.90
31695;DHT22;18289;51.330;4.946;2022-11-28T00:17:59;9.00;99.90
31695;DHT22;18289;51.330;4.946;2022-11-28T00:20:25;9.00;99.90
31695;DHT22;18289;51.330;4.946;2022-11-28T00:22:51;9.00;99.90
31695;DHT22;18289;51.330;4.946;2022-11-28T00:25:17;9.00;99.90
31695;DHT22;18289;51.330;4.946;2022-11-28T00:27:43;9.00;99.90
31695;DHT22;18289;51.330;4.946;2022-11-28T00:30:09;9.00;99.90
31695;DHT22;18289;51.330;4.946;2022-11-28T00:32:35;9.00;99.90
31695;DHT22;18289;51.330;4.946;2022-11-28T00:35:00;9.00;99.90
31695;DHT22;18289;51.330;4.946;2022-11-28T00:37:26;8.90;99.90
31695;DHT22;18289;51.330;4.946;2022-11-28T00:39:52;8.90;99.90
31695;DHT22;18289;51.330;4.946;2022-11-28T00:42:17;8.90;99.90
31695;DHT22;18289;51.330;4.946;2022-11-28T00:44:47;8.80;99.90
31695;DHT22;18289;51.330;4.946;2022-11-28T00:47:13;8.90;99.90
31695;DHT22;18289;51.330;4.946;2022-11-28T00:49:38;8.90;99.90
31695;DHT22;18289;51.330;4.946;2022-11-28T00:52:04;8.90;99.90
31695;DHT22;18289;51.330;4.946;2022-11-28T00:54:30;8.90;99.90
31695;DHT22;18289;51.330;4.946;2022-11-28T00:56:55;8.80;99.90
31695;DHT22;18289;51.330;4.946;2022-11-28T00:59:21;8.80;99.90
31695;DHT22;18289;51.330;4.946;2022-11-28T01:01:46;8.80;99.90
31695;DHT22;18289;51.330;4.946;2022-11-28T01:04:14;8.80;99.90
31695;DHT22;18289;51.330;4.946;2022-11-28T01:06:45;8.80;99.90
31695;DHT22;18289;51.330;4.946;2022-11-28T01:09:20;8.80;99.90
31695;DHT22;18289;51.330;4.946;2022-11-28T01:11:48;8.70;99.90
31695;DHT22;18289;51.330;4.946;2022-11-28T01:14:13;8.80;99.90
31695;DHT22;18289;51.330;4.946;2022-11-28T01:16:39;8.80;99.90
31695;DHT22;18289;51.330;4.946;2022-11-28T01:19:05;8.80;99.90
31695;DHT22;18289;51.330;4.946;2022-11-28T01:21:31;8.80;99.90
31695;DHT22;18289;51.330;4.946;2022-11-28T01:24:00;8.70;99.90
31695;DHT22;18289;51.330;4.946;2022-11-28T01:26:28;8.80;99.90
31695;DHT22;18289;51.330;4.946;2022-11-28T01:28:55;8.80;99.90
31695;DHT22;18289;51.330;4.946;2022-11-28T01:31:23;8.70;99.90
31695;DHT22;18289;51.330;4.946;2022-11-28T01:33:50;8.70;99.90
31695;DHT22;18289;51.330;4.946;2022-11-28T01:36:17;8.70;99.90
31695;DHT22;18289;51.330;4.946;2022-11-28T01:38:43;8.70;99.90
31695;DHT22;18289;51.330;4.946;2022-11-28T01:41:10;8.60;99.90
31695;DHT22;18289;51.330;4.946;2022-11-28T01:43:36;8.60;99.90
31695;DHT22;18289;51.330;4.946;2022-11-28T01:46:04;8.50;99.90
31695;DHT22;18289;51.330;4.946;2022-11-28T01:48:38;8.60;99.90
31695;DHT22;18289;51.330;4.946;2022-11-28T01:51:08;8.60;99.90
31695;DHT22;18289;51.330;4.946;2022-11-28T01:53:38;8.50;99.90
31695;DHT22;18289;51.330;4.946;2022-11-28T01:56:09;8.60;99.90
31695;DHT22;18289;51.330;4.946;2022-11-28T01:58:41;8.60;99.90
31695;DHT22;18289;51.330;4.946;2022-11-28T02:01:07;8.50;99.90
31695;DHT22;18289;51.330;4.946;2022-11-28T02:03:43;8.60;99.90
31695;DHT22;18289;51.330;4.946;2022-11-28T02:06:13;8.60;99.90
31695;DHT22;18289;51.330;4.946;2022-11-28T02:08:39;8.60;99.90
31695;DHT22;18289;51.330;4.946;2022-11-28T02:16:48;8.60;99.90
31695;DHT22;18289;51.330;4.946;2022-11-28T02:22:17;8.50;99.90
31695;DHT22;18289;51.330;4.946;2022-11-28T02:32:54;8.50;99.90
31695;DHT22;18289;51.330;4.946;2022-11-28T02:38:12;8.50;99.90
31695;DHT22;18289;51.330;4.946;2022-11-28T02:41:00;8.50;99.90
31695;DHT22;18289;51.330;4.946;2022-11-28T02:46:15;8.40;99.90
31695;DHT22;18289;51.330;4.946;2022-11-28T02:48:54;8.40;99.90
31695;DHT22;18289;51.330;4.946;2022-11-28T02:54:30;8.50;99.90
31695;DHT22;18289;51.330;4.946;2022-11-28T02:56:57;8.50;99.90
31695;DHT22;18289;51.330;4.946;2022-11-28T02:59:44;8.50;99.90
31695;DHT22;18289;51.330;4.946;2022-11-28T03:04:44;8.40;99.90
31695;DHT22;18289;51.330;4.946;2022-11-28T03:10:22;8.40;99.90
31695;DHT22;18289;51.330;4.946;2022-11-28T03:13:21;8.40;99.90
31695;DHT22;18289;51.330;4.946;2022-11-28T03:16:11;8.40;99.90
31695;DHT22;18289;51.330;4.946;2022-11-28T03:18:49;8.40;99.90
31695;DHT22;18289;51.330;4.946;2022-11-28T03:21:32;8.40;99.90
31695;DHT22;18289;51.330;4.946;2022-11-28T03:24:16;8.50;99.90
31695;DHT22;18289;51.330;4.946;2022-11-28T03:26:59;8.50;99.90
31695;DHT22;18289;51.330;4.946;2022-11-28T03:29:30;8.50;99.90
31695;DHT22;18289;51.330;4.946;2022-11-28T03:31:56;8.50;99.90
31695;DHT22;18289;51.330;4.946;2022-11-28T03:34:30;8.50;99.90
31695;DHT22;18289;51.330;4.946;2022-11-28T03:37:02;8.50;99.90
31695;DHT22;18289;51.330;4.946;2022-11-28T03:39:36;8.50;99.90
31695;DHT22;18289;51.330;4.946;2022-11-28T03:42:21;8.50;99.90
31695;DHT22;18289;51.330;4.946;2022-11-28T03:44:53;8.50;99.90
31695;DHT22;18289;51.330;4.946;2022-11-28T03:47:23;8.50;99.90
31695;DHT22;18289;51.330;4.946;2022-11-28T03:49:52;8.50;99.90
31695;DHT22;18289;51.330;4.946;2022-11-28T03:52:40;8.50;99.90
31695;DHT22;18289;51.330;4.946;2022-11-28T03:55:12;8.50;99.90
31695;DHT22;18289;51.330;4.946;2022-11-28T03:57:49;8.50;99.90
31695;DHT22;18289;51.330;4.946;2022-11-28T04:00:15;8.50;99.90
31695;DHT22;18289;51.330;4.946;2022-11-28T04:05:43;8.50;99.90
31695;DHT22;18289;51.330;4.946;2022-11-28T04:13:25;8.50;99.90
31695;DHT22;18289;51.330;4.946;2022-11-28T04:15:58;8.60;99.90
31695;DHT22;18289;51.330;4.946;2022-11-28T04:18:50;8.50;99.90
31695;DHT22;18289;51.330;4.946;2022-11-28T04:21:28;8.60;99.90
31695;DHT22;18289;51.330;4.946;2022-11-28T04:24:00;8.60;99.90
31695;DHT22;18289;51.330;4.946;2022-11-28T04:26:34;8.50;99.90
31695;DHT22;18289;51.330;4.946;2022-11-28T04:29:04;8.60;99.90
31695;DHT22;18289;51.330;4.946;2022-11-28T04:31:31;8.60;99.90
31695;DHT22;18289;51.330;4.946;2022-11-28T04:33:59;8.50;99.90
31695;DHT22;18289;51.330;4.946;2022-11-28T04:36:26;8.60;99.90
31695;DHT22;18289;51.330;4.946;2022-11-28T04:38:54;8.60;99.90
31695;DHT22;18289;51.330;4.946;2022-11-28T04:41:34;8.60;99.90
31695;DHT22;18289;51.330;4.946;2022-11-28T04:44:17;8.60;99.90
31695;DHT22;18289;51.330;4.946;2022-11-28T04:46:47;8.60;99.90
31695;DHT22;18289;51.330;4.946;2022-11-28T04:49:15;8.60;99.90
31695;DHT22;18289;51.330;4.946;2022-11-28T04:51:51;8.60;99.90
31695;DHT22;18289;51.330;4.946;2022-11-28T04:56:58;8.60;99.90
31695;DHT22;18289;51.330;4.946;2022-11-28T04:59:27;8.60;99.90
31695;DHT22;18289;51.330;4.946;2022-11-28T05:01:55;8.50;99.90
31695;DHT22;18289;51.330;4.946;2022-11-28T05:04:23;8.60;99.90
31695;DHT22;18289;51.330;4.946;2022-11-28T05:06:48;8.50;99.90
31695;DHT22;18289;51.330;4.946;2022-11-28T05:09:14;8.60;99.90
31695;DHT22;18289;51.330;4.946;2022-11-28T05:11:40;8.60;99.90
31695;DHT22;18289;51.330;4.946;2022-11-28T05:14:06;8.60;99.90
31695;DHT22;18289;51.330;4.946;2022-11-28T05:16:32;8.60;99.90
31695;DHT22;18289;51.330;4.946;2022-11-28T05:18:57;8.60;99.90
31695;DHT22;18289;51.330;4.946;2022-11-28T05:21:23;8.60;99.90
31695;DHT22;18289;51.330;4.946;2022-11-28T05:23:49;8.70;99.90
31695;DHT22;18289;51.330;4.946;2022-11-28T05:26:19;8.70;99.90
31695;DHT22;18289;51.330;4.946;2022-11-28T05:28:47;8.70;99.90
31695;DHT22;18289;51.330;4.946;2022-11-28T05:31:14;8.80;99.90
31695;DHT22;18289;51.330;4.946;2022-11-28T05:33:41;8.70;99.90
31695;DHT22;18289;51.330;4.946;2022-11-28T05:36:08;8.80;99.90
31695;DHT22;18289;51.330;4.946;2022-11-28T05:38:35;8.80;99.90
31695;DHT22;18289;51.330;4.946;2022-11-28T05:41:01;8.80;99.90
31695;DHT22;18289;51.330;4.946;2022-11-28T05:43:27;8.80;99.90
31695;DHT22;18289;51.330;4.946;2022-11-28T05:45:53;8.80;99.90
31695;DHT22;18289;51.330;4.946;2022-11-28T05:48:20;8.80;99.90
31695;DHT22;18289;51.330;4.946;2022-11-28T05:50:45;8.70;99.90
31695;DHT22;18289;51.330;4.946;2022-11-28T05:53:11;8.70;99.90
31695;DHT22;18289;51.330;4.946;2022-11-28T05:55:38;8.80;99.90
31695;DHT22;18289;51.330;4.946;2022-11-28T05:58:04;8.80;99.90
31695;DHT22;18289;51.330;4.946;2022-11-28T06:00:30;8.70;99.90
31695;DHT22;18289;51.330;4.946;2022-11-28T06:02:56;8.80;99.90
31695;DHT22;18289;51.330;4.946;2022-11-28T06:05:23;8.70;99.90
31695;DHT22;18289;51.330;4.946;2022-11-28T06:07:48;8.80;99.90
31695;DHT22;18289;51.330;4.946;2022-11-28T06:10:14;8.70;99.90
31695;DHT22;18289;51.330;4.946;2022-11-28T06:12:40;8.80;99.90
31695;DHT22;18289;51.330;4.946;2022-11-28T06:15:06;8.80;99.90
31695;DHT22;18289;51.330;4.946;2022-11-28T06:17:32;8.80;99.90
31695;DHT22;18289;51.330;4.946;2022-11-28T06:19:57;8.80;99.90
31695;DHT22;18289;51.330;4.946;2022-11-28T06:22:23;8.80;99.90
31695;DHT22;18289;51.330;4.946;2022-11-28T06:24:49;8.90;99.90
31695;DHT22;18289;51.330;4.946;2022-11-28T06:27:14;8.90;99.90
31695;DHT22;18289;51.330;4.946;2022-11-28T06:29:40;8.90;99.90
31695;DHT22;18289;51.330;4.946;2022-11-28T06:32:06;8.80;99.90
31695;DHT22;18289;51.330;4.946;2022-11-28T06:34:32;8.90;99.90
31695;DHT22;18289;51.330;4.946;2022-11-28T06:36:58;8.90;99.90
31695;DHT22;18289;51.330;4.946;2022-11-28T06:39:23;8.90;99.90
31695;DHT22;18289;51.330;4.946;2022-11-28T06:41:49;8.90;99.90
31695;DHT22;18289;51.330;4.946;2022-11-28T06:44:15;8.90;99.90
31695;DHT22;18289;51.330;4.946;2022-11-28T06:46:42;8.90;99.90
31695;DHT22;18289;51.330;4.946;2022-11-28T06:49:10;9.00;99.90
31695;DHT22;18289;51.330;4.946;2022-11-28T06:51:37;8.90;99.90
31695;DHT22;18289;51.330;4.946;2022-11-28T06:54:03;8.90;99.90
31695;DHT22;18289;51.330;4.946;2022-11-28T06:56:29;8.90;99.90
31695;DHT22;18289;51.330;4.946;2022-11-28T06:58:57;8.90;99.90
31695;DHT22;18289;51.330;4.946;2022-11-28T07:01:24;8.90;99.90
31695;DHT22;18289;51.330;4.946;2022-11-28T07:03:51;8.90;99.90
31695;DHT22;18289;51.330;4.946;2022-11-28T07:06:19;9.00;99.90
31695;DHT22;18289;51.330;4.946;2022-11-28T07:08:45;9.00;99.90
31695;DHT22;18289;51.330;4.946;2022-11-28T07:11:19;9.00;99.90
31695;DHT22;18289;51.330;4.946;2022-11-28T07:13:45;9.00;99.90
31695;DHT22;18289;51.330;4.946;2022-11-28T07:16:29;9.10;99.90
31695;DHT22;18289;51.330;4.946;2022-11-28T07:18:55;9.10;99.90
31695;DHT22;18289;51.330;4.946;2022-11-28T07:21:21;9.10;99.90
31695;DHT22;18289;51.330;4.946;2022-11-28T07:23:48;9.10;99.90
31695;DHT22;18289;51.330;4.946;2022-11-28T07:26:16;9.10;99.90
31695;DHT22;18289;51.330;4.946;2022-11-28T07:28:42;9.10;99.90
31695;DHT22;18289;51.330;4.946;2022-11-28T07:31:11;9.10;99.90
31695;DHT22;18289;51.330;4.946;2022-11-28T07:33:38;9.10;99.90
31695;DHT22;18289;51.330;4.946;2022-11-28T07:36:13;9.10;99.90
31695;DHT22;18289;51.330;4.946;2022-11-28T07:38:39;9.20;99.90
31695;DHT22;18289;51.330;4.946;2022-11-28T07:41:07;9.10;99.90
31695;DHT22;18289;51.330;4.946;2022-11-28T07:43:33;9.10;99.90
31695;DHT22;18289;51.330;4.946;2022-11-28T07:46:01;9.10;99.90
31695;DHT22;18289;51.330;4.946;2022-11-28T07:48:27;9.10;99.90
31695;DHT22;18289;51.330;4.946;2022-11-28T07:50:53;9.20;99.90
31695;DHT22;18289;51.330;4.946;2022-11-28T07:53:19;9.20;99.90
31695;DHT22;18289;51.330;4.946;2022-11-28T07:55:44;9.20;99.90
31695;DHT22;18289;51.330;4.946;2022-11-28T07:58:10;9.20;99.90
31695;DHT22;18289;51.330;4.946;2022-11-28T08:00:36;9.20;99.90
31695;DHT22;18289;51.330;4.946;2022-11-28T08:03:01;9.20;99.90
31695;DHT22;18289;51.330;4.946;2022-11-28T08:05:27;9.10;99.90
31695;DHT22;18289;51.330;4.946;2022-11-28T08:07:53;9.20;99.90
31695;DHT22;18289;51.330;4.946;2022-11-28T08:10:19;9.20;99.90
31695;DHT22;18289;51.330;4.946;2022-11-28T08:12:45;9.20;99.90
31695;DHT22;18289;51.330;4.946;2022-11-28T08:15:10;9.30;99.90
31695;DHT22;18289;51.330;4.946;2022-11-28T08:17:36;9.30;99.90
31695;DHT22;18289;51.330;4.946;2022-11-28T08:20:02;9.30;99.90
31695;DHT22;18289;51.330;4.946;2022-11-28T08:22:27;9.30;99.90
31695;DHT22;18289;51.330;4.946;2022-11-28T08:24:53;9.30;99.90
31695;DHT22;18289;51.330;4.946;2022-11-28T08:27:18;9.30;99.90
31695;DHT22;18289;51.330;4.946;2022-11-28T08:29:44;9.30;99.90
31695;DHT22;18289;51.330;4.946;2022-11-28T08:32:10;9.30;99.90
31695;DHT22;18289;51.330;4.946;2022-11-28T08:34:35;9.30;99.90
31695;DHT22;18289;51.330;4.946;2022-11-28T08:37:01;9.30;99.90
31695;DHT22;18289;51.330;4.946;2022-11-28T08:39:27;9.40;99.90
31695;DHT22;18289;51.330;4.946;2022-11-28T08:41:53;9.30;99.90
31695;DHT22;18289;51.330;4.946;2022-11-28T08:44:21;9.30;99.90
31695;DHT22;18289;51.330;4.946;2022-11-28T08:46:47;9.40;99.90
31695;DHT22;18289;51.330;4.946;2022-11-28T08:49:13;9.40;99.90
31695;DHT22;18289;51.330;4.946;2022-11-28T08:51:38;9.50;99.90
31695;DHT22;18289;51.330;4.946;2022-11-28T08:54:04;9.50;99.90
31695;DHT22;18289;51.330;4.946;2022-11-28T08:56:30;9.60;99.90
31695;DHT22;18289;51.330;4.946;2022-11-28T08:58:56;9.60;99.90
31695;DHT22;18289;51.330;4.946;2022-11-28T09:01:23;9.60;99.90
31695;DHT22;18289;51.330;4.946;2022-11-28T09:03:50;9.60;99.90
31695;DHT22;18289;51.330;4.946;2022-11-28T09:06:16;9.60;99.90
31695;DHT22;18289;51.330;4.946;2022-11-28T09:08:43;9.70;99.90
31695;DHT22;18289;51.330;4.946;2022-11-28T09:11:11;9.70;99.90
31695;DHT22;18289;51.330;4.946;2022-11-28T09:13:37;9.80;99.90
31695;DHT22;18289;51.330;4.946;2022-11-28T09:16:03;9.80;99.90
31695;DHT22;18289;51.330;4.946;2022-11-28T09:18:29;9.80;99.90
31695;DHT22;18289;51.330;4.946;2022-11-28T09:21:07;9.90;99.90
31695;DHT22;18289;51.330;4.946;2022-11-28T09:23:34;9.90;99.90
31695;DHT22;18289;51.330;4.946;2022-11-28T09:26:00;9.80;99.90
31695;DHT22;18289;51.330;4.946;2022-11-28T09:28:26;9.80;99.90
31695;DHT22;18289;51.330;4.946;2022-11-28T09:31:04;9.80;99.90
31695;DHT22;18289;51.330;4.946;2022-11-28T09:33:30;9.70;99.90
31695;DHT22;18289;51.330;4.946;2022-11-28T09:35:56;9.70;99.90
31695;DHT22;18289;51.330;4.946;2022-11-28T09:38:23;9.80;99.90
31695;DHT22;18289;51.330;4.946;2022-11-28T09:40:49;9.80;99.90
31695;DHT22;18289;51.330;4.946;2022-11-28T09:45:48;9.90;99.90
31695;DHT22;18289;51.330;4.946;2022-11-28T09:48:41;10.00;99.90
31695;DHT22;18289;51.330;4.946;2022-11-28T09:54:16;10.10;99.90
31695;DHT22;18289;51.330;4.946;2022-11-28T09:56:46;10.10;99.90
31695;DHT22;18289;51.330;4.946;2022-11-28T09:59:21;10.20;99.90
31695;DHT22;18289;51.330;4.946;2022-11-28T10:10:16;10.30;99.90
31695;DHT22;18289;51.330;4.946;2022-11-28T10:13:30;10.30;99.90
31695;DHT22;18289;51.330;4.946;2022-11-28T10:18:39;10.20;99.90
31695;DHT22;18289;51.330;4.946;2022-11-28T10:23:48;10.30;99.90
31695;DHT22;18289;51.330;4.946;2022-11-28T10:26:30;10.30;99.90
31695;DHT22;18289;51.330;4.946;2022-11-28T10:29:04;10.30;99.90
31695;DHT22;18289;51.330;4.946;2022-11-28T10:31:42;10.50;99.90
31695;DHT22;18289;51.330;4.946;2022-11-28T10:39:29;10.80;99.90
31695;DHT22;18289;51.330;4.946;2022-11-28T10:47:42;10.80;99.90
31695;DHT22;18289;51.330;4.946;2022-11-28T10:50:24;10.80;99.90
31695;DHT22;18289;51.330;4.946;2022-11-28T10:54:03;10.90;99.90
31695;DHT22;18289;51.330;4.946;2022-11-28T10:56:36;10.90;99.90
31695;DHT22;18289;51.330;4.946;2022-11-28T10:59:06;10.80;99.90
31695;DHT22;18289;51.330;4.946;2022-11-28T11:01:37;10.70;99.90
31695;DHT22;18289;51.330;4.946;2022-11-28T11:04:04;10.80;99.90
31695;DHT22;18289;51.330;4.946;2022-11-28T11:06:30;10.80;99.90
31695;DHT22;18289;51.330;4.946;2022-11-28T11:08:56;10.80;99.90
31695;DHT22;18289;51.330;4.946;2022-11-28T11:11:29;10.80;99.90
31695;DHT22;18289;51.330;4.946;2022-11-28T11:14:05;10.90;99.90
31695;DHT22;18289;51.330;4.946;2022-11-28T11:16:50;10.90;99.90
31695;DHT22;18289;51.330;4.946;2022-11-28T11:19:29;10.80;99.90
31695;DHT22;18289;51.330;4.946;2022-11-28T11:24:23;11.00;99.90
31695;DHT22;18289;51.330;4.946;2022-11-28T11:26:49;10.90;99.90
31695;DHT22;18289;51.330;4.946;2022-11-28T11:31:53;10.90;99.90
31695;DHT22;18289;51.330;4.946;2022-11-28T11:34:21;10.90;99.90
31695;DHT22;18289;51.330;4.946;2022-11-28T11:36:48;11.00;99.90
31695;DHT22;18289;51.330;4.946;2022-11-28T11:39:22;11.10;99.90
31695;DHT22;18289;51.330;4.946;2022-11-28T11:42:08;11.20;99.90
31695;DHT22;18289;51.330;4.946;2022-11-28T11:44:35;11.20;99.90
31695;DHT22;18289;51.330;4.946;2022-11-28T11:47:06;11.20;99.90
31695;DHT22;18289;51.330;4.946;2022-11-28T11:49:37;11.20;99.90
31695;DHT22;18289;51.330;4.946;2022-11-28T11:52:14;11.10;99.90
31695;DHT22;18289;51.330;4.946;2022-11-28T11:54:53;11.10;99.90
31695;DHT22;18289;51.330;4.946;2022-11-28T11:57:21;11.10;99.90
31695;DHT22;18289;51.330;4.946;2022-11-28T12:05:27;11.10;99.90
31695;DHT22;18289;51.330;4.946;2022-11-28T12:08:23;11.00;99.90
31695;DHT22;18289;51.330;4.946;2022-11-28T12:10:58;11.20;99.90
31695;DHT22;18289;51.330;4.946;2022-11-28T12:13:28;11.20;99.90
31695;DHT22;18289;51.330;4.946;2022-11-28T12:21:53;11.30;99.90
31695;DHT22;18289;51.330;4.946;2022-11-28T12:24:40;11.30;99.90
31695;DHT22;18289;51.330;4.946;2022-11-28T12:33:17;11.60;99.90
31695;DHT22;18289;51.330;4.946;2022-11-28T12:35:45;11.80;99.90
31695;DHT22;18289;51.330;4.946;2022-11-28T12:56:27;12.30;99.90
31695;DHT22;18289;51.330;4.946;2022-11-28T13:04:33;12.30;99.90
31695;DHT22;18289;51.330;4.946;2022-11-28T13:07:16;12.20;99.90
31695;DHT22;18289;51.330;4.946;2022-11-28T13:12:57;12.10;99.90
31695;DHT22;18289;51.330;4.946;2022-11-28T13:21:11;12.10;99.90
31695;DHT22;18289;51.330;4.946;2022-11-28T13:24:01;12.10;99.90
31695;DHT22;18289;51.330;4.946;2022-11-28T13:29:34;12.00;99.90
31695;DHT22;18289;51.330;4.946;2022-11-28T13:34:28;11.90;99.90
31695;DHT22;18289;51.330;4.946;2022-11-28T13:39:34;11.90;99.90
31695;DHT22;18289;51.330;4.946;2022-11-28T13:44:58;11.90;99.90
31695;DHT22;18289;51.330;4.946;2022-11-28T13:47:26;11.90;99.90
31695;DHT22;18289;51.330;4.946;2022-11-28T13:53:00;12.10;99.90
31695;DHT22;18289;51.330;4.946;2022-11-28T13:55:42;12.10;99.90
31695;DHT22;18289;51.330;4.946;2022-11-28T13:58:24;12.10;99.90
31695;DHT22;18289;51.330;4.946;2022-11-28T14:03:32;12.20;99.90
31695;DHT22;18289;51.330;4.946;2022-11-28T14:06:01;12.30;99.90
31695;DHT22;18289;51.330;4.946;2022-11-28T14:08:35;12.30;99.90
31695;DHT22;18289;51.330;4.946;2022-11-28T14:14:00;12.30;99.90
31695;DHT22;18289;51.330;4.946;2022-11-28T14:16:45;12.30;99.90
31695;DHT22;18289;51.330;4.946;2022-11-28T14:24:56;12.10;99.90
31695;DHT22;18289;51.330;4.946;2022-11-28T14:27:30;12.00;99.90
31695;DHT22;18289;51.330;4.946;2022-11-28T14:29:57;12.00;99.90
31695;DHT22;18289;51.330;4.946;2022-11-28T14:32:34;11.90;99.90
31695;DHT22;18289;51.330;4.946;2022-11-28T14:35:01;11.80;99.90
31695;DHT22;18289;51.330;4.946;2022-11-28T14:39:56;11.50;99.90
31695;DHT22;18289;51.330;4.946;2022-11-28T14:42:33;11.50;99.90
31695;DHT22;18289;51.330;4.946;2022-11-28T14:45:39;11.40;99.90
31695;DHT22;18289;51.330;4.946;2022-11-28T14:56:21;11.10;99.90
31695;DHT22;18289;51.330;4.946;2022-11-28T14:58:49;11.10;99.90
31695;DHT22;18289;51.330;4.946;2022-11-28T15:01:35;11.00;99.90
31695;DHT22;18289;51.330;4.946;2022-11-28T15:06:53;10.80;99.90
31695;DHT22;18289;51.330;4.946;2022-11-28T15:09:43;10.70;99.90
31695;DHT22;18289;51.330;4.946;2022-11-28T15:12:27;10.50;99.90
31695;DHT22;18289;51.330;4.946;2022-11-28T15:14:56;10.50;99.90
31695;DHT22;18289;51.330;4.946;2022-11-28T15:17:28;10.30;99.90
31695;DHT22;18289;51.330;4.946;2022-11-28T15:20:01;10.40;99.90
31695;DHT22;18289;51.330;4.946;2022-11-28T15:22:39;10.30;99.90
31695;DHT22;18289;51.330;4.946;2022-11-28T15:25:21;10.30;99.90
31695;DHT22;18289;51.330;4.946;2022-11-28T15:27:47;10.30;99.90
31695;DHT22;18289;51.330;4.946;2022-11-28T15:30:15;10.20;99.90
31695;DHT22;18289;51.330;4.946;2022-11-28T15:32:41;10.20;99.90
31695;DHT22;18289;51.330;4.946;2022-11-28T15:35:12;10.10;99.90
31695;DHT22;18289;51.330;4.946;2022-11-28T15:37:52;10.10;99.90
31695;DHT22;18289;51.330;4.946;2022-11-28T15:40:30;10.00;99.90
31695;DHT22;18289;51.330;4.946;2022-11-28T15:42:57;10.00;99.90
31695;DHT22;18289;51.330;4.946;2022-11-28T15:45:24;10.00;99.90
31695;DHT22;18289;51.330;4.946;2022-11-28T15:47:51;10.00;99.90
31695;DHT22;18289;51.330;4.946;2022-11-28T15:50:24;9.90;99.90
31695;DHT22;18289;51.330;4.946;2022-11-28T15:53:01;9.90;99.90
31695;DHT22;18289;51.330;4.946;2022-11-28T15:55:29;9.90;99.90
31695;DHT22;18289;51.330;4.946;2022-11-28T16:00:34;9.80;99.90
31695;DHT22;18289;51.330;4.946;2022-11-28T16:03:01;9.80;99.90
31695;DHT22;18289;51.330;4.946;2022-11-28T16:05:27;9.80;99.90
31695;DHT22;18289;51.330;4.946;2022-11-28T16:07:52;9.70;99.90
31695;DHT22;18289;51.330;4.946;2022-11-28T16:10:24;9.70;99.90
31695;DHT22;18289;51.330;4.946;2022-11-28T16:12:57;9.70;99.90
31695;DHT22;18289;51.330;4.946;2022-11-28T16:15:25;9.80;99.90
31695;DHT22;18289;51.330;4.946;2022-11-28T16:17:53;9.80;99.90
31695;DHT22;18289;51.330;4.946;2022-11-28T16:20:32;9.80;99.90
31695;DHT22;18289;51.330;4.946;2022-11-28T16:23:07;9.80;99.90
31695;DHT22;18289;51.330;4.946;2022-11-28T16:25:34;9.80;99.90
31695;DHT22;18289;51.330;4.946;2022-11-28T16:28:00;9.80;99.90
31695;DHT22;18289;51.330;4.946;2022-11-28T16:30:42;9.70;99.90
31695;DHT22;18289;51.330;4.946;2022-11-28T16:33:38;9.70;99.90
31695;DHT22;18289;51.330;4.946;2022-11-28T16:38:40;9.70;99.90
31695;DHT22;18289;51.330;4.946;2022-11-28T16:41:19;9.60;99.90
31695;DHT22;18289;51.330;4.946;2022-11-28T16:43:58;9.70;99.90
31695;DHT22;18289;51.330;4.946;2022-11-28T16:46:25;9.70;99.90
31695;DHT22;18289;51.330;4.946;2022-11-28T16:48:55;9.60;99.90
31695;DHT22;18289;51.330;4.946;2022-11-28T16:53:54;9.50;99.90
31695;DHT22;18289;51.330;4.946;2022-11-28T16:56:25;9.50;99.90
31695;DHT22;18289;51.330;4.946;2022-11-28T16:59:10;9.50;99.90
31695;DHT22;18289;51.330;4.946;2022-11-28T17:01:37;9.50;99.90
31695;DHT22;18289;51.330;4.946;2022-11-28T17:04:04;9.50;99.90
31695;DHT22;18289;51.330;4.946;2022-11-28T17:06:31;9.50;99.90
31695;DHT22;18289;51.330;4.946;2022-11-28T17:09:06;9.50;99.90
31695;DHT22;18289;51.330;4.946;2022-11-28T17:11:36;9.40;99.90
31695;DHT22;18289;51.330;4.946;2022-11-28T17:14:03;9.40;99.90
31695;DHT22;18289;51.330;4.946;2022-11-28T17:16:30;9.40;99.90
31695;DHT22;18289;51.330;4.946;2022-11-28T17:19:01;9.30;99.90
31695;DHT22;18289;51.330;4.946;2022-11-28T17:21:43;9.30;99.90
31695;DHT22;18289;51.330;4.946;2022-11-28T17:24:28;9.30;99.90
31695;DHT22;18289;51.330;4.946;2022-11-28T17:26:56;9.30;99.90
31695;DHT22;18289;51.330;4.946;2022-11-28T17:29:22;9.30;99.90
31695;DHT22;18289;51.330;4.946;2022-11-28T17:31:50;9.30;99.90
31695;DHT22;18289;51.330;4.946;2022-11-28T17:34:18;9.20;99.90
31695;DHT22;18289;51.330;4.946;2022-11-28T17:36:44;9.20;99.90
31695;DHT22;18289;51.330;4.946;2022-11-28T17:39:10;9.20;99.90
31695;DHT22;18289;51.330;4.946;2022-11-28T17:41:36;9.20;99.90
31695;DHT22;18289;51.330;4.946;2022-11-28T17:44:02;9.10;99.90
31695;DHT22;18289;51.330;4.946;2022-11-28T17:46:28;9.20;99.90
31695;DHT22;18289;51.330;4.946;2022-11-28T17:48:54;9.20;99.90
31695;DHT22;18289;51.330;4.946;2022-11-28T17:51:20;9.10;99.90
31695;DHT22;18289;51.330;4.946;2022-11-28T17:53:46;9.10;99.90
31695;DHT22;18289;51.330;4.946;2022-11-28T17:56:12;9.00;99.90
31695;DHT22;18289;51.330;4.946;2022-11-28T17:58:37;9.10;99.90
31695;DHT22;18289;51.330;4.946;2022-11-28T18:01:09;9.00;99.90
31695;DHT22;18289;51.330;4.946;2022-11-28T18:03:35;9.00;99.90
31695;DHT22;18289;51.330;4.946;2022-11-28T18:06:01;9.00;99.90
31695;DHT22;18289;51.330;4.946;2022-11-28T18:08:29;9.00;99.90
31695;DHT22;18289;51.330;4.946;2022-11-28T18:11:05;9.00;99.90
31695;DHT22;18289;51.330;4.946;2022-11-28T18:13:31;8.90;99.90
31695;DHT22;18289;51.330;4.946;2022-11-28T18:15:57;8.90;99.90
31695;DHT22;18289;51.330;4.946;2022-11-28T18:18:23;8.90;99.90
31695;DHT22;18289;51.330;4.946;2022-11-28T18:20:49;9.00;99.90
31695;DHT22;18289;51.330;4.946;2022-11-28T18:23:15;8.90;99.90
31695;DHT22;18289;51.330;4.946;2022-11-28T18:25:42;8.90;99.90
31695;DHT22;18289;51.330;4.946;2022-11-28T18:28:08;9.00;99.90
31695;DHT22;18289;51.330;4.946;2022-11-28T18:30:34;8.90;99.90
31695;DHT22;18289;51.330;4.946;2022-11-28T18:33:00;8.90;99.90
31695;DHT22;18289;51.330;4.946;2022-11-28T18:35:25;8.90;99.90
31695;DHT22;18289;51.330;4.946;2022-11-28T18:37:51;8.80;99.90
31695;DHT22;18289;51.330;4.946;2022-11-28T18:40:19;8.80;99.90
31695;DHT22;18289;51.330;4.946;2022-11-28T18:42:44;8.80;99.90
31695;DHT22;18289;51.330;4.946;2022-11-28T18:45:11;8.80;99.90
31695;DHT22;18289;51.330;4.946;2022-11-28T18:47:37;8.80;99.90
31695;DHT22;18289;51.330;4.946;2022-11-28T18:50:03;8.80;99.90
31695;DHT22;18289;51.330;4.946;2022-11-28T18:52:28;8.80;99.90
31695;DHT22;18289;51.330;4.946;2022-11-28T18:54:54;8.70;99.90